Time;durP1;ratioP1;P1;durP2;ratioP2;P2;SDS_P1;SDS_P2;PMS_P1;PMS_P2;Temp;Humidity;BMP_temperature;BMP_pressure;BME280_temperature;BME280_humidity;BME280_pressure;Samples;Min_cycle;Max_cycle;Signal;HPM_P1;HPM_P2
2022/06/26 00:00:10;;;;;;;0.60;0.40;;;21.20;62.00;;;;;;6163487;23;20001;-74
2022/06/26 00:02:36;;;;;;;0.70;0.30;;;21.20;62.00;;;;;;6163401;23;20453;-74
2022/06/26 00:05:02;;;;;;;0.40;0.30;;;21.20;62.00;;;;;;6214551;23;20445;-74
2022/06/26 00:07:28;;;;;;;0.70;0.30;;;21.20;62.00;;;;;;6214818;23;20004;-74
2022/06/26 00:09:53;;;;;;;0.80;0.40;;;21.20;62.00;;;;;;6214434;23;20009;-74
2022/06/26 00:12:19;;;;;;;1.08;0.38;;;21.20;62.00;;;;;;6214450;23;20008;-74
2022/06/26 00:14:44;;;;;;;0.60;0.30;;;21.20;62.00;;;;;;6214483;23;20377;-74
2022/06/26 00:17:10;;;;;;;1.48;0.50;;;21.10;62.00;;;;;;6214517;23;20007;-74
2022/06/26 00:19:36;;;;;;;0.88;0.50;;;21.20;62.10;;;;;;6187748;23;20005;-74
2022/06/26 00:22:05;;;;;;;0.40;0.28;;;21.10;62.00;;;;;;6214627;23;20020;-74
2022/06/26 00:24:34;;;;;;;0.80;0.40;;;21.10;62.00;;;;;;6214090;23;20560;-74
2022/06/26 00:27:02;;;;;;;0.80;0.43;;;21.10;62.00;;;;;;6188016;23;20001;-74
2022/06/26 00:29:29;;;;;;;0.45;0.20;;;21.10;62.00;;;;;;6190297;23;20001;-74
2022/06/26 00:31:55;;;;;;;1.15;0.50;;;21.10;62.00;;;;;;6190112;23;20071;-74
2022/06/26 00:34:20;;;;;;;0.73;0.40;;;21.10;62.00;;;;;;6216214;23;20066;-74
2022/06/26 00:36:46;;;;;;;0.40;0.30;;;21.10;62.10;;;;;;6189933;23;20039;-74
2022/06/26 00:39:12;;;;;;;0.63;0.40;;;21.10;62.10;;;;;;6216013;23;20102;-74
2022/06/26 00:41:38;;;;;;;0.28;0.20;;;21.10;62.10;;;;;;6216444;23;20008;-74
2022/06/26 00:44:18;;;;;;;0.77;0.40;;;21.10;62.20;;;;;;6190229;23;19997;-74
2022/06/26 00:46:44;;;;;;;0.47;0.30;;;21.10;62.00;;;;;;6165370;23;20003;-74
2022/06/26 00:49:09;;;;;;;1.77;0.60;;;21.10;62.10;;;;;;6216368;23;20001;-74
2022/06/26 00:51:46;;;;;;;0.82;0.40;;;21.10;62.10;;;;;;6189720;23;20337;-74
2022/06/26 00:54:11;;;;;;;0.60;0.50;;;21.00;62.00;;;;;;6166970;23;20000;-74
2022/06/26 00:56:37;;;;;;;0.93;0.40;;;21.10;62.00;;;;;;6165061;23;20015;-74
2022/06/26 00:59:03;;;;;;;1.23;0.60;;;21.00;62.00;;;;;;6189903;23;20004;-74
2022/06/26 01:01:29;;;;;;;0.60;0.30;;;21.00;62.00;;;;;;6189884;23;20444;-74
2022/06/26 01:03:55;;;;;;;0.40;0.38;;;21.00;62.00;;;;;;6216199;23;20004;-74
2022/06/26 01:06:20;;;;;;;0.52;0.30;;;21.00;62.00;;;;;;6164706;23;20075;-74
2022/06/26 01:08:46;;;;;;;0.52;0.30;;;21.00;62.00;;;;;;6189789;23;20139;-74
2022/06/26 01:11:18;;;;;;;0.60;0.30;;;21.00;62.10;;;;;;6189769;23;20054;-74
2022/06/26 01:13:47;;;;;;;1.30;0.40;;;21.00;62.10;;;;;;6190993;23;20075;-74
2022/06/26 01:16:17;;;;;;;0.50;0.40;;;21.00;62.00;;;;;;6189535;23;20001;-74
2022/06/26 01:18:48;;;;;;;0.47;0.45;;;21.00;62.00;;;;;;6165015;23;20001;-74
2022/06/26 01:21:15;;;;;;;0.60;0.60;;;21.00;62.00;;;;;;6165218;23;20000;-74
2022/06/26 01:23:40;;;;;;;0.95;0.30;;;21.00;62.00;;;;;;6164860;23;20005;-74
2022/06/26 01:26:06;;;;;;;0.60;0.40;;;21.00;62.00;;;;;;6189550;23;20397;-74
2022/06/26 01:28:32;;;;;;;0.55;0.45;;;21.00;62.00;;;;;;6189475;23;20004;-74
2022/06/26 01:30:57;;;;;;;1.05;0.57;;;21.00;62.00;;;;;;6216080;23;20031;-74
2022/06/26 01:33:23;;;;;;;0.77;0.30;;;21.00;62.00;;;;;;6189538;23;20348;-74
2022/06/26 01:35:49;;;;;;;1.40;0.57;;;21.00;62.00;;;;;;6188881;23;20005;-74
2022/06/26 01:38:16;;;;;;;1.08;0.50;;;21.00;62.00;;;;;;6215938;23;20062;-74
2022/06/26 01:40:42;;;;;;;0.40;0.22;;;21.00;62.00;;;;;;6189500;23;19997;-73
2022/06/26 01:43:08;;;;;;;1.55;0.47;;;21.00;62.00;;;;;;6189318;23;20001;-74
2022/06/26 01:45:40;;;;;;;1.15;0.40;;;20.90;61.90;;;;;;6215822;23;20075;-74
2022/06/26 01:48:05;;;;;;;2.30;0.60;;;20.90;61.90;;;;;;6216182;23;20012;-74
2022/06/26 01:50:31;;;;;;;0.90;0.40;;;20.90;61.90;;;;;;6215326;23;20004;-74
2022/06/26 01:52:57;;;;;;;0.75;0.38;;;20.90;61.90;;;;;;6215830;23;20503;-73
2022/06/26 01:55:22;;;;;;;0.85;0.50;;;20.90;61.90;;;;;;6189074;23;20004;-74
2022/06/26 01:57:48;;;;;;;0.93;0.45;;;20.90;61.90;;;;;;6189300;23;19997;-74
2022/06/26 02:00:14;;;;;;;0.93;0.50;;;20.90;61.90;;;;;;6215812;23;20005;-74
2022/06/26 02:02:40;;;;;;;1.10;0.60;;;20.90;61.90;;;;;;6164387;23;20341;-74
2022/06/26 02:05:06;;;;;;;1.02;0.47;;;20.90;61.90;;;;;;6188983;23;20000;-74
2022/06/26 02:07:31;;;;;;;0.43;0.38;;;20.90;61.90;;;;;;6215893;23;20005;-74
2022/06/26 02:15:25;;;;;;;1.27;0.50;;;20.90;62.00;;;;;;6215567;23;20486;-74
2022/06/26 02:17:50;;;;;;;1.17;0.40;;;20.90;61.90;;;;;;6215572;23;20075;-74
2022/06/26 02:20:16;;;;;;;0.47;0.30;;;20.80;61.80;;;;;;6188754;23;20001;-74
2022/06/26 02:22:42;;;;;;;1.13;0.38;;;20.90;62.00;;;;;;6215502;23;20001;-74
2022/06/26 02:25:08;;;;;;;0.68;0.40;;;20.90;61.90;;;;;;6188725;23;20449;-73
2022/06/26 02:27:34;;;;;;;0.57;0.52;;;20.90;61.90;;;;;;6215522;23;20027;-74
2022/06/26 02:30:00;;;;;;;0.75;0.40;;;20.90;61.90;;;;;;6215549;23;20074;-74
2022/06/26 02:32:26;;;;;;;1.15;0.50;;;20.90;61.90;;;;;;6215309;23;20005;-74
2022/06/26 02:34:51;;;;;;;0.88;0.45;;;20.80;61.80;;;;;;6214879;23;20005;-74
2022/06/26 02:37:17;;;;;;;0.30;0.30;;;20.80;61.80;;;;;;6188711;23;20357;-74
2022/06/26 02:39:42;;;;;;;0.88;0.40;;;20.80;61.80;;;;;;6215256;23;20004;-74
2022/06/26 02:42:08;;;;;;;0.70;0.40;;;20.80;61.80;;;;;;6215517;23;20004;-74
2022/06/26 02:44:34;;;;;;;0.80;0.50;;;20.80;61.90;;;;;;6215221;23;20004;-74
2022/06/26 02:47:00;;;;;;;0.88;0.50;;;20.80;61.80;;;;;;6215265;23;20023;-74
2022/06/26 02:49:26;;;;;;;1.13;0.50;;;20.80;61.80;;;;;;6163859;23;20001;-74
2022/06/26 02:51:51;;;;;;;0.82;0.47;;;20.80;61.80;;;;;;6188170;23;20035;-74
2022/06/26 02:54:17;;;;;;;1.17;0.50;;;20.80;61.80;;;;;;6188711;23;20471;-74
2022/06/26 02:56:43;;;;;;;0.60;0.32;;;20.80;61.80;;;;;;6215036;23;20005;-74
2022/06/26 02:59:08;;;;;;;1.30;0.57;;;20.80;61.80;;;;;;6188791;23;20042;-74
2022/06/26 03:01:34;;;;;;;0.75;0.47;;;20.80;61.80;;;;;;6214966;23;20040;-73
2022/06/26 03:04:00;;;;;;;0.80;0.40;;;20.80;61.80;;;;;;6215021;23;20380;-74
2022/06/26 03:06:25;;;;;;;0.22;0.22;;;20.80;61.80;;;;;;6214934;23;20028;-74
2022/06/26 03:08:51;;;;;;;0.60;0.43;;;20.80;61.80;;;;;;6188437;23;20004;-74
2022/06/26 03:11:16;;;;;;;0.93;0.55;;;20.80;61.80;;;;;;6188638;23;20055;-74
2022/06/26 03:13:42;;;;;;;0.63;0.30;;;20.80;61.80;;;;;;6188216;23;20091;-74
2022/06/26 03:16:08;;;;;;;0.47;0.30;;;20.80;61.80;;;;;;6214817;23;20079;-74
2022/06/26 03:18:33;;;;;;;0.90;0.50;;;20.80;61.80;;;;;;6214518;23;20011;-74
2022/06/26 03:20:59;;;;;;;0.40;0.30;;;20.80;61.80;;;;;;6214724;23;20004;-74
2022/06/26 03:26:16;;;;;;;0.40;0.30;;;20.70;61.70;;;;;;6149031;23;20012;-74
2022/06/26 03:28:42;;;;;;;0.90;0.40;;;20.70;61.70;;;;;;6188428;23;20000;-74
2022/06/26 03:31:08;;;;;;;1.20;0.45;;;20.70;61.70;;;;;;6214510;23;20069;-74
2022/06/26 03:33:33;;;;;;;0.65;0.45;;;20.70;61.70;;;;;;6214564;23;19997;-74
2022/06/26 03:35:59;;;;;;;1.05;0.40;;;20.70;61.70;;;;;;6187974;23;20025;-74
2022/06/26 03:38:25;;;;;;;0.63;0.40;;;20.70;61.80;;;;;;6214696;23;20337;-74
2022/06/26 03:40:50;;;;;;;0.50;0.30;;;20.70;61.70;;;;;;6188286;23;20047;-74
2022/06/26 03:43:16;;;;;;;0.60;0.50;;;20.70;61.70;;;;;;6188304;23;19996;-74
2022/06/26 03:45:42;;;;;;;0.55;0.52;;;20.70;61.70;;;;;;6214199;23;20005;-74
2022/06/26 03:48:08;;;;;;;0.88;0.60;;;20.70;61.70;;;;;;6214895;23;20469;-74
2022/06/26 03:50:34;;;;;;;1.13;0.60;;;20.70;61.70;;;;;;6188265;23;20028;-74
2022/06/26 03:53:00;;;;;;;0.40;0.30;;;20.70;61.70;;;;;;6188066;23;20005;-74
2022/06/26 03:55:26;;;;;;;0.93;0.50;;;20.70;61.70;;;;;;6187884;23;20005;-74
2022/06/26 03:57:51;;;;;;;1.13;0.65;;;20.70;61.70;;;;;;6214555;23;20051;-74
2022/06/26 04:00:17;;;;;;;1.77;0.65;;;20.70;61.70;;;;;;6214467;23;20004;-74
2022/06/26 04:02:43;;;;;;;0.93;0.43;;;20.70;61.70;;;;;;6214504;23;20001;-74
2022/06/26 04:05:08;;;;;;;1.08;0.40;;;20.60;61.70;;;;;;6187923;23;20004;-74
2022/06/26 04:07:34;;;;;;;0.60;0.50;;;20.60;61.70;;;;;;6214501;23;20068;-74
2022/06/26 04:10:00;;;;;;;0.40;0.40;;;20.60;61.70;;;;;;6188286;23;20437;-74
2022/06/26 04:12:25;;;;;;;0.60;0.40;;;20.60;61.70;;;;;;6187899;23;20078;-74
2022/06/26 04:14:51;;;;;;;0.57;0.50;;;20.60;61.70;;;;;;6162950;23;20091;-74
2022/06/26 04:17:17;;;;;;;1.13;0.50;;;20.60;61.60;;;;;;6214649;23;20000;-74
2022/06/26 04:19:42;;;;;;;1.27;0.57;;;20.60;61.60;;;;;;6162950;23;20008;-74
2022/06/26 04:22:08;;;;;;;1.60;0.60;;;20.60;61.70;;;;;;6214505;23;20024;-74
2022/06/26 04:24:33;;;;;;;1.20;0.60;;;20.60;61.70;;;;;;6188012;23;20338;-74
2022/06/26 04:26:59;;;;;;;0.73;0.50;;;20.60;61.60;;;;;;6214401;23;20005;-74
2022/06/26 04:29:25;;;;;;;0.82;0.50;;;20.60;61.60;;;;;;6187944;23;20001;-74
2022/06/26 04:31:50;;;;;;;0.63;0.50;;;20.60;61.60;;;;;;6163173;23;20008;-74
2022/06/26 04:34:16;;;;;;;0.80;0.47;;;20.60;61.70;;;;;;6214329;23;20031;-74
2022/06/26 04:36:42;;;;;;;0.40;0.40;;;20.60;61.60;;;;;;6187853;23;20080;-74
2022/06/26 04:39:07;;;;;;;0.82;0.50;;;20.60;61.60;;;;;;6188028;23;19997;-74
2022/06/26 04:41:36;;;;;;;0.70;0.70;;;20.60;61.60;;;;;;6187791;23;20053;-74
2022/06/26 04:44:09;;;;;;;0.43;0.40;;;20.50;61.60;;;;;;6214388;23;20007;-74
2022/06/26 04:46:35;;;;;;;1.13;0.55;;;20.50;61.60;;;;;;6163446;23;20005;-74
2022/06/26 04:49:01;;;;;;;1.17;0.40;;;20.50;61.60;;;;;;6187918;23;20004;-74
2022/06/26 04:51:27;;;;;;;0.98;0.50;;;20.60;61.60;;;;;;6214456;23;20078;-74
2022/06/26 04:53:52;;;;;;;0.68;0.43;;;20.50;61.50;;;;;;6187994;23;20072;-74
2022/06/26 04:56:18;;;;;;;0.70;0.40;;;20.50;61.60;;;;;;6187788;23;20514;-74
2022/06/26 04:58:44;;;;;;;0.85;0.47;;;20.50;61.60;;;;;;6214164;23;20001;-74
2022/06/26 05:01:09;;;;;;;1.40;0.63;;;20.50;61.60;;;;;;6214422;23;20005;-74
2022/06/26 05:03:35;;;;;;;1.30;0.70;;;20.50;61.60;;;;;;6187921;23;20007;-74
2022/06/26 05:06:00;;;;;;;1.63;0.60;;;20.50;61.60;;;;;;6187943;23;20344;-74
2022/06/26 05:08:26;;;;;;;0.65;0.40;;;20.50;61.60;;;;;;6187910;23;20500;-74
2022/06/26 05:10:52;;;;;;;0.60;0.50;;;20.50;61.60;;;;;;6187707;23;20005;-74
2022/06/26 05:13:17;;;;;;;1.38;0.82;;;20.50;61.60;;;;;;6214179;23;20008;-74
2022/06/26 05:15:43;;;;;;;1.60;0.60;;;20.50;61.60;;;;;;6188650;23;20004;-74
2022/06/26 05:18:09;;;;;;;0.73;0.50;;;20.50;61.60;;;;;;6189781;23;20003;-73
2022/06/26 05:20:34;;;;;;;0.35;0.30;;;20.50;61.60;;;;;;6216087;23;20000;-74
2022/06/26 05:23:00;;;;;;;1.40;0.60;;;20.50;61.60;;;;;;6215844;23;20003;-74
2022/06/26 05:25:25;;;;;;;0.73;0.50;;;20.50;61.60;;;;;;6189820;23;20004;-74
2022/06/26 05:27:51;;;;;;;0.75;0.50;;;20.50;61.60;;;;;;6189343;23;20001;-74
2022/06/26 05:30:17;;;;;;;1.30;0.50;;;20.50;61.60;;;;;;6216134;23;20311;-74
2022/06/26 05:32:42;;;;;;;0.65;0.50;;;20.50;61.60;;;;;;6216348;23;20000;-74
2022/06/26 05:35:08;;;;;;;1.20;0.50;;;20.50;61.60;;;;;;6215481;23;20055;-74
2022/06/26 05:37:34;;;;;;;1.05;0.40;;;20.40;61.50;;;;;;6215907;23;20112;-74
2022/06/26 05:39:59;;;;;;;0.52;0.45;;;20.40;61.60;;;;;;6189417;23;20390;-74
2022/06/26 05:42:25;;;;;;;1.40;0.60;;;20.50;61.60;;;;;;6189134;23;20433;-74
2022/06/26 05:44:50;;;;;;;0.52;0.40;;;20.50;61.60;;;;;;6189443;23;20008;-74
2022/06/26 05:47:16;;;;;;;0.70;0.45;;;20.50;61.60;;;;;;6215711;23;20007;-74
2022/06/26 05:49:42;;;;;;;0.65;0.40;;;20.40;61.50;;;;;;6215832;23;20004;-74
2022/06/26 05:52:07;;;;;;;0.65;0.47;;;20.50;61.60;;;;;;6215805;23;20437;-74
2022/06/26 05:54:33;;;;;;;0.82;0.40;;;20.40;61.50;;;;;;6189213;23;20005;-74
2022/06/26 05:56:58;;;;;;;0.75;0.30;;;20.40;61.50;;;;;;6215350;23;19997;-73
2022/06/26 05:59:24;;;;;;;0.63;0.50;;;20.40;61.50;;;;;;6215695;23;19997;-74
2022/06/26 06:01:50;;;;;;;0.75;0.30;;;20.40;61.50;;;;;;6189330;23;20342;-74
2022/06/26 06:04:15;;;;;;;1.35;0.60;;;20.40;61.50;;;;;;6189322;23;20008;-74
2022/06/26 06:06:41;;;;;;;0.38;0.30;;;20.40;61.60;;;;;;6189243;23;20429;-74
2022/06/26 06:09:07;;;;;;;0.57;0.40;;;20.40;61.50;;;;;;6164400;23;20008;-74
2022/06/26 06:11:32;;;;;;;0.85;0.50;;;20.40;61.50;;;;;;6215222;23;20000;-74
2022/06/26 06:13:58;;;;;;;1.00;0.45;;;20.40;61.60;;;;;;6215603;23;20372;-74
2022/06/26 06:16:24;;;;;;;0.68;0.55;;;20.40;61.50;;;;;;6189190;23;20007;-74
2022/06/26 06:18:50;;;;;;;0.93;0.40;;;20.40;61.60;;;;;;6215542;23;20032;-74
2022/06/26 06:21:15;;;;;;;0.43;0.38;;;20.40;61.50;;;;;;6215661;23;20020;-74
2022/06/26 06:23:44;;;;;;;0.93;0.50;;;20.40;61.50;;;;;;6215268;23;20004;-74
2022/06/26 06:26:10;;;;;;;0.57;0.50;;;20.40;61.50;;;;;;6189349;23;20012;-74
2022/06/26 06:28:36;;;;;;;0.60;0.30;;;20.40;61.50;;;;;;6164364;23;20009;-74
2022/06/26 06:31:01;;;;;;;0.95;0.40;;;20.30;61.50;;;;;;6215393;23;20436;-74
2022/06/26 06:33:27;;;;;;;0.93;0.50;;;20.40;61.60;;;;;;6189002;23;20345;-74
2022/06/26 06:35:55;;;;;;;0.30;0.30;;;20.40;61.60;;;;;;6188290;23;20438;-74
2022/06/26 06:38:21;;;;;;;0.50;0.40;;;20.40;61.60;;;;;;6189291;23;20042;-74
2022/06/26 06:40:47;;;;;;;0.80;0.40;;;20.40;61.60;;;;;;6188653;23;20024;-74
2022/06/26 06:43:13;;;;;;;1.02;0.40;;;20.40;61.50;;;;;;6188811;23;20054;-74
2022/06/26 06:45:38;;;;;;;0.43;0.32;;;20.40;61.60;;;;;;6215317;23;20517;-74
2022/06/26 06:48:04;;;;;;;1.17;0.45;;;20.40;61.60;;;;;;6215289;23;20009;-74
2022/06/26 06:50:30;;;;;;;0.90;0.60;;;20.40;61.60;;;;;;6215306;23;20342;-74
2022/06/26 06:52:56;;;;;;;0.60;0.30;;;20.30;61.50;;;;;;6188661;23;20001;-74
2022/06/26 06:55:22;;;;;;;0.63;0.55;;;20.30;61.60;;;;;;6214957;23;20001;-74
2022/06/26 06:57:47;;;;;;;0.47;0.35;;;20.30;61.50;;;;;;6214958;23;20008;-74
2022/06/26 07:00:13;;;;;;;0.43;0.32;;;20.30;61.60;;;;;;6215155;23;19997;-74
2022/06/26 07:02:39;;;;;;;0.52;0.32;;;20.30;61.50;;;;;;6188659;23;20042;-73
2022/06/26 07:05:08;;;;;;;1.13;0.45;;;20.30;61.50;;;;;;6215008;23;20062;-74
2022/06/26 07:07:34;;;;;;;1.10;0.63;;;20.30;61.50;;;;;;6163843;23;20004;-74
2022/06/26 07:10:00;;;;;;;0.82;0.40;;;20.30;61.50;;;;;;6188267;23;20005;-74
2022/06/26 07:12:26;;;;;;;0.57;0.50;;;20.30;61.50;;;;;;6188648;23;20008;-74
2022/06/26 07:14:52;;;;;;;0.82;0.45;;;20.30;61.50;;;;;;6188273;23;20012;-74
2022/06/26 07:17:18;;;;;;;0.55;0.40;;;20.30;61.50;;;;;;6163920;23;20007;-74
2022/06/26 07:19:44;;;;;;;0.68;0.20;;;20.30;61.50;;;;;;6214863;23;20051;-74
2022/06/26 07:22:10;;;;;;;0.80;0.40;;;20.30;61.50;;;;;;6188378;23;19997;-74
2022/06/26 07:24:35;;;;;;;0.80;0.43;;;20.30;61.50;;;;;;6188363;23;20068;-74
2022/06/26 07:27:03;;;;;;;1.00;0.47;;;20.30;61.50;;;;;;6188233;23;20005;-74
2022/06/26 07:29:29;;;;;;;1.10;0.70;;;20.30;61.50;;;;;;6188604;23;20008;-74
2022/06/26 07:31:54;;;;;;;0.82;0.60;;;20.30;61.50;;;;;;6214805;23;20001;-74
2022/06/26 07:34:21;;;;;;;1.17;0.40;;;20.30;61.50;;;;;;6138837;23;20471;-73
2022/06/26 07:36:47;;;;;;;0.68;0.38;;;20.30;61.60;;;;;;6214434;23;20019;-74
2022/06/26 07:39:14;;;;;;;0.73;0.50;;;20.30;61.60;;;;;;6187695;23;20088;-74
2022/06/26 07:41:43;;;;;;;0.65;0.30;;;20.30;61.50;;;;;;6188293;23;19997;-74
2022/06/26 07:44:09;;;;;;;0.73;0.40;;;20.30;61.50;;;;;;6163864;23;20322;-74
2022/06/26 07:46:35;;;;;;;0.63;0.40;;;20.30;61.50;;;;;;6188285;23;20043;-74
2022/06/26 07:49:01;;;;;;;0.70;0.40;;;20.30;61.50;;;;;;6188101;23;20005;-74
2022/06/26 07:51:27;;;;;;;1.58;0.40;;;20.30;61.50;;;;;;6188513;23;20074;-74
2022/06/26 07:53:52;;;;;;;1.20;0.43;;;20.30;61.50;;;;;;6187751;23;20008;-74
2022/06/26 07:56:18;;;;;;;0.70;0.55;;;20.30;61.50;;;;;;6214605;23;20036;-74
2022/06/26 07:58:44;;;;;;;0.55;0.40;;;20.30;61.50;;;;;;6214599;23;20071;-74
2022/06/26 08:01:10;;;;;;;0.80;0.30;;;20.30;61.50;;;;;;6214548;23;20000;-74
2022/06/26 08:03:35;;;;;;;1.15;0.60;;;20.30;61.50;;;;;;6188123;23;19997;-74
2022/06/26 08:06:01;;;;;;;1.05;0.52;;;20.30;61.50;;;;;;6214583;23;20058;-74
2022/06/26 08:08:26;;;;;;;0.82;0.40;;;20.30;61.50;;;;;;6163147;23;20000;-74
2022/06/26 08:10:52;;;;;;;0.90;0.45;;;20.30;61.50;;;;;;6214490;23;20005;-74
2022/06/26 08:13:18;;;;;;;0.60;0.32;;;20.30;61.50;;;;;;6188289;23;20198;-74
2022/06/26 08:15:43;;;;;;;0.85;0.50;;;20.30;61.50;;;;;;6214424;23;20084;-74
2022/06/26 08:18:09;;;;;;;1.77;0.60;;;20.30;61.50;;;;;;6163345;23;20071;-74
2022/06/26 08:20:35;;;;;;;0.52;0.45;;;20.30;61.50;;;;;;6214761;23;19997;-74
2022/06/26 08:23:00;;;;;;;0.57;0.35;;;20.30;61.50;;;;;;6163010;23;20001;-74
2022/06/26 08:25:26;;;;;;;1.15;0.43;;;20.30;61.50;;;;;;6214553;23;20001;-74
2022/06/26 08:27:52;;;;;;;1.52;0.40;;;20.30;61.50;;;;;;6214619;23;20349;-74
2022/06/26 08:30:17;;;;;;;0.57;0.35;;;20.30;61.50;;;;;;6163182;23;20004;-74
2022/06/26 08:32:43;;;;;;;0.30;0.30;;;20.30;61.60;;;;;;6163201;23;20054;-74
2022/06/26 08:35:09;;;;;;;0.70;0.43;;;20.30;61.60;;;;;;6187845;23;20000;-74
2022/06/26 08:37:35;;;;;;;0.40;0.40;;;20.30;61.60;;;;;;6214074;23;20017;-74
2022/06/26 08:40:01;;;;;;;0.93;0.40;;;20.30;61.60;;;;;;6214517;23;20388;-74
2022/06/26 08:42:26;;;;;;;0.95;0.47;;;20.30;61.60;;;;;;6214475;23;20031;-74
2022/06/26 08:44:52;;;;;;;0.77;0.47;;;20.30;61.60;;;;;;6163244;23;20071;-74
2022/06/26 08:47:18;;;;;;;0.30;0.30;;;20.30;61.60;;;;;;6188181;23;20005;-74
2022/06/26 08:49:44;;;;;;;0.63;0.32;;;20.30;61.60;;;;;;6138746;23;20058;-74
2022/06/26 08:52:14;;;;;;;0.85;0.45;;;20.30;61.60;;;;;;6189682;23;20004;-74
2022/06/26 08:54:40;;;;;;;0.70;0.30;;;20.30;61.60;;;;;;6165966;23;20028;-74
2022/06/26 08:57:06;;;;;;;1.10;0.40;;;20.30;61.60;;;;;;6189875;23;20341;-74
2022/06/26 08:59:31;;;;;;;0.95;0.35;;;20.30;61.60;;;;;;6165038;23;20383;-74
2022/06/26 09:01:57;;;;;;;0.32;0.30;;;20.30;61.60;;;;;;6216340;23;20051;-74
2022/06/26 09:04:23;;;;;;;0.30;0.30;;;20.30;61.60;;;;;;6189336;23;20000;-74
2022/06/26 09:06:49;;;;;;;0.80;0.47;;;20.30;61.60;;;;;;6216463;23;20004;-74
2022/06/26 09:09:27;;;;;;;2.15;0.70;;;20.30;61.60;;;;;;6164904;23;20119;-74
2022/06/26 09:11:57;;;;;;;0.70;0.50;;;20.30;61.60;;;;;;6189793;23;20084;-74
2022/06/26 09:14:23;;;;;;;1.35;0.50;;;20.30;61.60;;;;;;6216071;23;20000;-74
2022/06/26 09:16:49;;;;;;;0.43;0.38;;;20.30;61.60;;;;;;6189866;23;20001;-74
2022/06/26 09:19:18;;;;;;;1.42;0.30;;;20.30;61.60;;;;;;6164457;23;20000;-74
2022/06/26 09:21:44;;;;;;;1.60;0.60;;;20.30;61.60;;;;;;6216170;23;20437;-74
2022/06/26 09:24:11;;;;;;;0.40;0.30;;;20.30;61.60;;;;;;6189656;23;20012;-74
2022/06/26 09:26:38;;;;;;;1.33;0.40;;;20.30;61.60;;;;;;6165492;23;20005;-74
2022/06/26 09:29:11;;;;;;;1.13;0.50;;;20.30;61.50;;;;;;6189864;23;20015;-74
2022/06/26 09:31:37;;;;;;;0.80;0.50;;;20.30;61.60;;;;;;6189322;23;20007;-74
2022/06/26 09:34:06;;;;;;;1.35;0.43;;;20.30;61.60;;;;;;6164671;23;20011;-74
2022/06/26 09:36:32;;;;;;;1.42;0.50;;;20.30;61.50;;;;;;6215549;23;20020;-74
2022/06/26 09:38:58;;;;;;;0.70;0.40;;;20.30;61.60;;;;;;6189563;23;20007;-74
2022/06/26 09:41:33;;;;;;;0.85;0.40;;;20.30;61.50;;;;;;6189631;23;20483;-74
2022/06/26 09:43:59;;;;;;;0.80;0.40;;;20.30;61.60;;;;;;6215876;23;20051;-74
2022/06/26 09:46:32;;;;;;;0.73;0.30;;;20.30;61.50;;;;;;6164727;23;20338;-74
2022/06/26 09:48:58;;;;;;;1.33;0.50;;;20.30;61.60;;;;;;6164516;23;20000;-74
2022/06/26 09:51:25;;;;;;;1.05;0.40;;;20.30;61.60;;;;;;6216034;23;20024;-74
2022/06/26 09:53:50;;;;;;;1.02;0.70;;;20.30;61.60;;;;;;6164974;23;20352;-74
2022/06/26 09:56:16;;;;;;;0.80;0.47;;;20.30;61.60;;;;;;6189231;23;20071;-74
2022/06/26 09:58:42;;;;;;;1.40;0.30;;;20.30;61.60;;;;;;6140101;23;20005;-74
2022/06/26 10:06:36;;;;;;;0.98;0.55;;;20.30;61.60;;;;;;6172239;23;20071;-74
2022/06/26 10:09:07;;;;;;;0.50;0.30;;;20.30;61.60;;;;;;6215630;23;20436;-74
2022/06/26 10:11:34;;;;;;;0.85;0.40;;;20.30;61.50;;;;;;6164925;23;20408;-74
2022/06/26 10:14:17;;;;;;;0.98;0.52;;;20.30;61.50;;;;;;6189436;23;20001;-74
2022/06/26 10:17:21;;;;;;;0.60;0.50;;;20.30;61.50;;;;;;6167041;23;20001;-74
2022/06/26 10:19:56;;;;;;;;;;;20.30;61.50;;;;;;6216127;23;20005;-74
2022/06/26 10:22:21;;;;;;;0.47;0.40;;;20.30;61.60;;;;;;6215657;23;20341;-74
2022/06/26 10:25:08;;;;;;;1.75;0.60;;;20.30;61.50;;;;;;6189121;23;20043;-74
2022/06/26 10:27:34;;;;;;;1.08;0.50;;;20.30;61.50;;;;;;6215377;23;20435;-74
2022/06/26 10:30:15;;;;;;;1.38;0.50;;;20.30;61.50;;;;;;6189293;23;20000;-74
2022/06/26 10:32:40;;;;;;;1.27;0.60;;;20.30;61.50;;;;;;6164766;23;20610;-74
2022/06/26 10:35:07;;;;;;;0.75;0.43;;;20.30;61.50;;;;;;6188910;23;20028;-74
2022/06/26 10:37:49;;;;;;;0.88;0.55;;;20.30;61.50;;;;;;6215126;23;20075;-74
2022/06/26 10:43:09;;;;;;;1.00;0.40;;;20.30;61.50;;;;;;6215385;23;20055;-74
2022/06/26 10:45:38;;;;;;;1.17;0.50;;;20.30;61.50;;;;;;6189248;23;20080;-74
2022/06/26 10:48:06;;;;;;;0.40;0.30;;;20.30;61.50;;;;;;6188919;23;20026;-74
2022/06/26 10:50:40;;;;;;;0.77;0.45;;;20.30;61.50;;;;;;6189433;23;20000;-74
2022/06/26 10:53:17;;;;;;;0.65;0.30;;;20.30;61.60;;;;;;6164283;23;20001;-74
2022/06/26 10:55:51;;;;;;;1.45;0.40;;;20.30;61.50;;;;;;6215007;23;20027;-74
2022/06/26 10:58:24;;;;;;;1.67;0.68;;;20.30;61.50;;;;;;6139629;23;20035;-74
2022/06/26 11:00:51;;;;;;;1.60;0.43;;;20.30;61.50;;;;;;6188722;23;20001;-74
2022/06/26 11:03:17;;;;;;;1.20;0.45;;;20.30;61.50;;;;;;6188536;23;20001;-74
2022/06/26 11:06:10;;;;;;;0.77;0.40;;;20.30;61.50;;;;;;6164114;23;20008;-74
2022/06/26 11:08:43;;;;;;;0.68;0.47;;;20.30;61.50;;;;;;6184135;23;20349;-74
2022/06/26 11:11:14;;;;;;;0.30;0.30;;;20.30;61.50;;;;;;6165172;23;20000;-74
2022/06/26 11:14:01;;;;;;;0.93;0.50;;;20.30;61.50;;;;;;6163383;23;20088;-74
2022/06/26 11:16:34;;;;;;;1.02;0.38;;;20.30;61.50;;;;;;6214765;23;20005;-74
2022/06/26 11:19:03;;;;;;;1.05;0.50;;;20.30;61.50;;;;;;6189037;23;20004;-74
2022/06/26 11:21:30;;;;;;;1.08;0.50;;;20.30;61.50;;;;;;6215335;23;20067;-74
2022/06/26 11:23:56;;;;;;;0.65;0.40;;;20.30;61.50;;;;;;6188523;23;20004;-74
2022/06/26 11:26:22;;;;;;;0.70;0.50;;;20.30;61.50;;;;;;6188458;23;20001;-74
2022/06/26 11:28:59;;;;;;;0.73;0.20;;;20.30;61.50;;;;;;6163885;23;20001;-74
2022/06/26 11:31:26;;;;;;;0.75;0.40;;;20.30;61.40;;;;;;6163586;23;20028;-74
2022/06/26 11:33:52;;;;;;;0.68;0.40;;;20.30;61.50;;;;;;6163968;23;20059;-74
2022/06/26 11:36:18;;;;;;;0.68;0.40;;;20.30;61.40;;;;;;6163156;23;20008;-74
2022/06/26 11:38:54;;;;;;;0.43;0.22;;;20.30;61.50;;;;;;6188424;23;20005;-74
2022/06/26 11:41:23;;;;;;;0.65;0.20;;;20.30;61.50;;;;;;6189892;23;19996;-74
2022/06/26 11:43:52;;;;;;;0.45;0.30;;;20.30;61.50;;;;;;6214907;23;20001;-74
2022/06/26 11:46:18;;;;;;;0.82;0.43;;;20.30;61.50;;;;;;6163974;23;20074;-74
2022/06/26 11:48:43;;;;;;;0.63;0.30;;;20.30;61.50;;;;;;6163697;23;20445;-74
2022/06/26 11:51:11;;;;;;;0.70;0.30;;;20.30;61.50;;;;;;6188128;23;20008;-74
2022/06/26 11:53:37;;;;;;;0.40;0.30;;;20.30;61.50;;;;;;6163774;23;20124;-74
2022/06/26 11:56:03;;;;;;;0.45;0.30;;;20.30;61.50;;;;;;6163780;23;20496;-74
2022/06/26 11:58:31;;;;;;;0.50;0.32;;;20.30;61.50;;;;;;6214436;23;20004;-74
2022/06/26 12:01:04;;;;;;;0.60;0.30;;;20.30;61.50;;;;;;6163643;23;20004;-74
2022/06/26 12:03:30;;;;;;;1.40;0.38;;;20.40;61.50;;;;;;6164139;23;19997;-74
2022/06/26 12:05:56;;;;;;;0.75;0.40;;;20.30;61.50;;;;;;6188338;23;20062;-74
2022/06/26 12:08:21;;;;;;;0.65;0.40;;;20.40;61.50;;;;;;6214579;23;20005;-74
2022/06/26 12:10:49;;;;;;;0.82;0.40;;;20.30;61.60;;;;;;6163382;23;20013;-74
2022/06/26 12:13:31;;;;;;;0.60;0.30;;;20.30;61.50;;;;;;6162958;23;20083;-74
2022/06/26 12:16:06;;;;;;;0.68;0.40;;;20.30;61.50;;;;;;6214458;23;20005;-74
2022/06/26 12:18:34;;;;;;;0.30;0.20;;;20.40;61.50;;;;;;6214676;23;20075;-74
2022/06/26 12:21:00;;;;;;;1.00;0.40;;;20.30;61.50;;;;;;6214632;23;20111;-74
2022/06/26 12:23:33;;;;;;;0.68;0.38;;;20.40;61.60;;;;;;6188109;23;19996;-74
2022/06/26 12:26:09;;;;;;;0.55;0.35;;;20.40;61.50;;;;;;6191172;23;20082;-74
2022/06/26 12:28:52;;;;;;;0.50;0.20;;;20.30;61.60;;;;;;6165435;23;20000;-74
2022/06/26 12:31:19;;;;;;;0.10;0.10;;;20.30;61.60;;;;;;6216668;23;20083;-74
2022/06/26 12:33:48;;;;;;;0.60;0.30;;;20.30;61.60;;;;;;6165658;23;20429;-74
2022/06/26 12:36:15;;;;;;;0.55;0.30;;;20.40;61.50;;;;;;6189548;23;20008;-74
2022/06/26 12:38:41;;;;;;;1.35;0.40;;;20.30;61.50;;;;;;6165266;23;20460;-74
2022/06/26 12:41:16;;;;;;;0.25;0.20;;;20.40;61.50;;;;;;6190048;23;19997;-73
2022/06/26 12:43:45;;;;;;;0.45;0.30;;;20.40;61.50;;;;;;6216312;23;20051;-74
2022/06/26 12:46:10;;;;;;;0.50;0.30;;;20.40;61.50;;;;;;6216522;23;20000;-74
2022/06/26 12:48:36;;;;;;;0.73;0.30;;;20.40;61.50;;;;;;6189954;23;20012;-74
2022/06/26 12:51:02;;;;;;;0.73;0.30;;;20.40;61.50;;;;;;6216354;23;20417;-74
2022/06/26 12:53:27;;;;;;;0.47;0.38;;;20.40;61.50;;;;;;6216400;23;20725;-74
2022/06/26 12:55:53;;;;;;;0.98;0.30;;;20.40;61.50;;;;;;6216277;23;20433;-74
2022/06/26 12:58:19;;;;;;;0.50;0.28;;;20.40;61.60;;;;;;6189675;23;20246;-74
2022/06/26 13:00:46;;;;;;;0.68;0.32;;;20.40;61.60;;;;;;6190130;23;20000;-74
2022/06/26 13:03:11;;;;;;;0.40;0.38;;;20.40;61.60;;;;;;6190016;23;20001;-74